createdAt,value
2022-11-17T00:01:22.277Z,100.00
2022-11-17T00:03:51.136Z,100.00
2022-11-17T00:06:21.736Z,100.00
2022-11-17T00:08:49.423Z,100.00
2022-11-17T00:11:16.447Z,100.00
2022-11-17T00:14:20.446Z,100.00
2022-11-17T00:16:50.141Z,100.00
2022-11-17T00:19:35.574Z,100.00
2022-11-17T00:22:02.610Z,100.00
2022-11-17T00:24:29.519Z,100.00
2022-11-17T00:27:02.287Z,100.00
2022-11-17T00:29:29.980Z,100.00
2022-11-17T00:32:15.538Z,100.00
2022-11-17T00:34:42.778Z,100.00
2022-11-17T00:37:12.068Z,100.00
2022-11-17T00:39:39.090Z,100.00
2022-11-17T00:42:05.949Z,100.00
2022-11-17T00:44:32.930Z,100.00
2022-11-17T00:46:59.893Z,100.00
2022-11-17T00:49:26.963Z,100.00
2022-11-17T00:51:55.498Z,100.00
2022-11-17T00:54:22.690Z,100.00
2022-11-17T00:56:49.818Z,100.00
2022-11-17T00:59:17.090Z,100.00
2022-11-17T01:01:44.171Z,100.00
2022-11-17T01:04:13.653Z,100.00
2022-11-17T01:06:43.482Z,100.00
2022-11-17T01:09:14.687Z,100.00
2022-11-17T01:11:42.616Z,100.00
2022-11-17T01:14:14.211Z,100.00
2022-11-17T01:16:41.367Z,100.00
2022-11-17T01:19:09.092Z,100.00
2022-11-17T01:21:36.093Z,100.00
2022-11-17T01:24:03.168Z,100.00
2022-11-17T01:26:33.038Z,100.00
2022-11-17T01:29:01.731Z,100.00
2022-11-17T01:31:34.618Z,100.00
2022-11-17T01:34:02.023Z,100.00
2022-11-17T01:36:56.132Z,100.00
2022-11-17T01:39:27.330Z,100.00
2022-11-17T01:41:55.410Z,100.00
2022-11-17T01:44:49.170Z,100.00
2022-11-17T01:47:54.863Z,100.00
2022-11-17T01:50:36.691Z,100.00
2022-11-17T01:53:17.591Z,100.00
2022-11-17T01:55:51.330Z,100.00
2022-11-17T01:58:23.948Z,100.00
2022-11-17T02:00:51.897Z,100.00
2022-11-17T02:03:19.098Z,100.00
2022-11-17T02:06:05.811Z,100.00
2022-11-17T02:08:34.840Z,100.00
2022-11-17T02:11:04.175Z,100.00
2022-11-17T02:13:32.184Z,100.00
2022-11-17T02:15:59.307Z,100.00
2022-11-17T02:18:26.747Z,100.00
2022-11-17T02:21:15.410Z,100.00
2022-11-17T02:24:00.770Z,100.00
2022-11-17T02:26:52.424Z,100.00
2022-11-17T02:29:24.531Z,100.00
2022-11-17T02:32:03.169Z,100.00
2022-11-17T02:34:53.091Z,100.00
2022-11-17T02:37:38.357Z,100.00
2022-11-17T02:40:23.668Z,100.00
2022-11-17T02:43:18.689Z,100.00
2022-11-17T02:46:08.769Z,100.00
2022-11-17T02:49:01.410Z,100.00
2022-11-17T02:51:29.649Z,100.00
2022-11-17T02:54:00.359Z,100.00
2022-11-17T02:56:27.338Z,100.00
2022-11-17T02:59:00.374Z,100.00
2022-11-17T03:01:30.345Z,100.00
2022-11-17T03:04:09.459Z,100.00
2022-11-17T03:06:54.451Z,100.00
2022-11-17T03:09:46.032Z,100.00
2022-11-17T03:12:31.938Z,100.00
2022-11-17T03:15:04.145Z,100.00
2022-11-17T03:17:51.861Z,100.00
2022-11-17T03:20:44.968Z,100.00
2022-11-17T03:23:20.949Z,100.00
2022-11-17T03:25:54.961Z,100.00
2022-11-17T03:28:26.345Z,100.00
2022-11-17T03:30:54.325Z,100.00
2022-11-17T03:33:24.668Z,100.00
2022-11-17T03:36:07.293Z,100.00
2022-11-17T03:38:57.649Z,100.00
2022-11-17T03:41:29.187Z,100.00
2022-11-17T03:43:58.947Z,100.00
2022-11-17T03:46:28.817Z,100.00
2022-11-17T03:49:09.731Z,100.00
2022-11-17T03:51:38.478Z,100.00
2022-11-17T03:54:07.167Z,100.00
2022-11-17T03:56:56.169Z,100.00
2022-11-17T03:59:26.486Z,100.00
2022-11-17T04:01:54.339Z,100.00
2022-11-17T04:04:23.649Z,100.00
2022-11-17T04:06:55.547Z,100.00
2022-11-17T04:09:24.620Z,100.00
2022-11-17T04:12:10.213Z,100.00
2022-11-17T04:14:55.737Z,100.00
2022-11-17T04:17:22.847Z,100.00
2022-11-17T04:19:49.735Z,100.00
2022-11-17T04:22:16.568Z,100.00
2022-11-17T04:24:43.447Z,100.00
2022-11-17T04:27:28.966Z,100.00
2022-11-17T04:29:55.953Z,100.00
2022-11-17T04:32:22.950Z,100.00
2022-11-17T04:34:50.687Z,100.00
2022-11-17T04:37:17.640Z,100.00
2022-11-17T04:39:46.218Z,100.00
2022-11-17T04:42:13.192Z,100.00
2022-11-17T04:44:41.008Z,100.00
2022-11-17T04:47:07.888Z,100.00
2022-11-17T04:49:34.818Z,100.00
2022-11-17T04:52:01.726Z,100.00
2022-11-17T04:54:28.874Z,100.00
2022-11-17T04:56:56.545Z,100.00
2022-11-17T04:59:24.492Z,99.91
2022-11-17T05:01:51.764Z,99.95
2022-11-17T05:04:40.608Z,100.00
2022-11-17T05:07:08.704Z,99.89
2022-11-17T05:09:35.908Z,100.00
2022-11-17T05:12:21.636Z,99.93
2022-11-17T05:14:50.507Z,100.00
2022-11-17T05:17:17.758Z,99.87
2022-11-17T05:19:47.219Z,99.78
2022-11-17T05:22:36.035Z,100.00
2022-11-17T05:25:03.732Z,99.90
2022-11-17T05:27:30.622Z,100.00
2022-11-17T05:29:57.619Z,100.00
2022-11-17T05:32:24.546Z,100.00
2022-11-17T05:34:51.712Z,100.00
2022-11-17T05:37:18.847Z,100.00
2022-11-17T05:39:45.888Z,100.00
2022-11-17T05:42:12.800Z,100.00
2022-11-17T05:44:40.168Z,100.00
2022-11-17T05:47:07.231Z,100.00
2022-11-17T05:49:34.139Z,100.00
2022-11-17T05:52:01.022Z,100.00
2022-11-17T05:54:27.989Z,99.66
2022-11-17T05:57:07.107Z,99.71
2022-11-17T05:59:40.688Z,98.96
2022-11-17T06:02:12.850Z,99.05
2022-11-17T06:04:40.329Z,99.42
2022-11-17T06:07:07.899Z,100.00
2022-11-17T06:09:39.737Z,100.00
2022-11-17T06:12:06.751Z,100.00
2022-11-17T06:14:35.698Z,100.00
2022-11-17T06:17:09.821Z,100.00
2022-11-17T06:19:43.402Z,100.00
2022-11-17T06:22:12.714Z,100.00
2022-11-17T06:24:43.346Z,100.00
2022-11-17T06:27:13.764Z,99.92
2022-11-17T06:29:44.639Z,99.81
2022-11-17T06:32:18.192Z,99.87
2022-11-17T06:34:53.842Z,99.92
2022-11-17T06:37:24.110Z,99.96
2022-11-17T06:39:50.979Z,99.84
2022-11-17T06:42:17.890Z,99.98
2022-11-17T06:44:44.870Z,99.82
2022-11-17T06:47:11.833Z,99.94
2022-11-17T06:49:39.362Z,100.00
2022-11-17T06:52:06.320Z,100.00
2022-11-17T06:54:33.338Z,100.00
2022-11-17T06:57:00.375Z,99.85
2022-11-17T06:59:27.412Z,99.80
2022-11-17T07:01:54.438Z,99.67
2022-11-17T07:04:21.500Z,99.64
2022-11-17T07:06:48.545Z,99.78
2022-11-17T07:09:15.497Z,99.67
2022-11-17T07:11:42.466Z,99.78
2022-11-17T07:14:09.576Z,99.54
2022-11-17T07:16:36.646Z,99.48
2022-11-17T07:19:03.911Z,99.65
2022-11-17T07:21:31.363Z,99.60
2022-11-17T07:23:58.387Z,99.45
2022-11-17T07:26:25.481Z,99.47
2022-11-17T07:28:52.456Z,99.68
2022-11-17T07:31:19.509Z,99.64
2022-11-17T07:33:46.715Z,99.83
2022-11-17T07:36:17.496Z,99.60
2022-11-17T07:38:44.536Z,99.40
2022-11-17T07:41:13.880Z,99.00
2022-11-17T07:43:41.264Z,98.74
2022-11-17T07:46:14.138Z,98.67
2022-11-17T07:48:42.937Z,98.37
2022-11-17T07:51:09.957Z,98.21
2022-11-17T07:53:37.167Z,98.18
2022-11-17T07:56:09.931Z,98.33
2022-11-17T07:58:38.597Z,97.96
2022-11-17T08:01:11.040Z,97.65
2022-11-17T08:03:38.599Z,97.63
2022-11-17T08:06:07.867Z,97.24
2022-11-17T08:08:35.777Z,97.31
2022-11-17T08:11:08.687Z,96.87
2022-11-17T08:13:36.494Z,97.33
2022-11-17T08:16:03.918Z,97.24
2022-11-17T08:18:31.665Z,96.97
2022-11-17T08:21:15.416Z,96.95
2022-11-17T08:23:42.690Z,96.81
2022-11-17T08:26:12.085Z,96.74
2022-11-17T08:28:40.402Z,96.42
2022-11-17T08:31:08.599Z,96.17
2022-11-17T08:33:36.137Z,96.13
2022-11-17T08:36:04.911Z,96.01
2022-11-17T08:38:32.143Z,95.77
2022-11-17T08:41:04.820Z,95.49
2022-11-17T08:43:32.439Z,95.35
2022-11-17T08:45:59.657Z,94.88
2022-11-17T08:48:26.615Z,94.79
2022-11-17T08:50:53.577Z,94.86
2022-11-17T08:53:23.442Z,94.63
2022-11-17T08:55:52.063Z,94.60
2022-11-17T08:58:19.012Z,94.28
2022-11-17T09:00:47.704Z,94.16
2022-11-17T09:03:15.333Z,93.69
2022-11-17T09:05:45.334Z,93.48
2022-11-17T09:08:43.871Z,93.24
2022-11-17T09:11:08.290Z,93.37
2022-11-17T09:13:36.055Z,93.18
2022-11-17T09:16:05.018Z,93.13
2022-11-17T09:18:38.674Z,92.66
2022-11-17T09:21:12.132Z,92.53
2022-11-17T09:23:39.813Z,92.39
2022-11-17T09:26:10.050Z,92.02
2022-11-17T09:28:37.513Z,92.03
2022-11-17T09:31:23.778Z,91.51
2022-11-17T09:33:50.947Z,91.47
2022-11-17T09:36:18.086Z,91.36
2022-11-17T09:38:47.184Z,91.11
2022-11-17T09:41:26.531Z,90.64
2022-11-17T09:44:28.539Z,90.85
2022-11-17T09:47:30.948Z,90.49
2022-11-17T09:50:18.335Z,90.64
2022-11-17T09:52:59.231Z,90.92
2022-11-17T09:55:49.983Z,90.67
2022-11-17T09:58:38.958Z,90.54
2022-11-17T10:01:10.688Z,90.28
2022-11-17T10:03:44.931Z,89.97
2022-11-17T10:06:21.825Z,90.09
2022-11-17T10:08:58.385Z,90.08
2022-11-17T10:11:34.145Z,89.93
2022-11-17T10:14:12.461Z,89.75
2022-11-17T10:16:52.939Z,89.81
2022-11-17T10:19:25.779Z,89.34
2022-11-17T10:22:10.761Z,89.40
2022-11-17T10:24:43.651Z,89.61
2022-11-17T10:27:30.934Z,89.29
2022-11-17T10:30:04.547Z,89.03
2022-11-17T10:32:38.131Z,89.23
2022-11-17T10:35:20.092Z,89.21
2022-11-17T10:37:53.097Z,89.14
2022-11-17T10:40:25.750Z,89.28
2022-11-17T10:43:00.143Z,89.13
2022-11-17T10:45:27.490Z,88.98
2022-11-17T10:48:09.495Z,88.92
2022-11-17T10:50:37.367Z,89.12
2022-11-17T10:53:45.113Z,89.24
2022-11-17T10:56:12.886Z,89.17
2022-11-17T10:59:01.436Z,89.05
2022-11-17T11:01:37.447Z,88.83
2022-11-17T11:04:07.501Z,88.88
2022-11-17T11:06:35.972Z,89.08
2022-11-17T11:09:23.348Z,89.20
2022-11-17T11:11:54.612Z,89.40
2022-11-17T11:14:37.244Z,89.34
2022-11-17T11:17:16.062Z,89.48
2022-11-17T11:19:48.691Z,89.36
2022-11-17T11:22:21.819Z,89.30
2022-11-17T11:25:24.651Z,89.33
2022-11-17T11:28:16.334Z,89.61
2022-11-17T11:31:19.332Z,89.56
2022-11-17T11:33:56.772Z,89.67
2022-11-17T11:36:31.372Z,89.66
2022-11-17T11:39:02.263Z,89.85
2022-11-17T11:41:50.921Z,89.77
2022-11-17T11:45:02.792Z,89.78
2022-11-17T11:47:37.859Z,90.00
2022-11-17T11:50:24.217Z,89.95
2022-11-17T11:53:11.671Z,89.49
2022-11-17T11:55:41.550Z,89.67
2022-11-17T11:58:21.516Z,89.54
2022-11-17T12:00:52.410Z,89.38
2022-11-17T12:03:29.847Z,89.40
2022-11-17T12:06:32.021Z,89.51
2022-11-17T12:09:06.747Z,89.16
2022-11-17T12:11:53.210Z,88.99
2022-11-17T12:14:20.421Z,88.83
2022-11-17T12:16:48.658Z,88.73
2022-11-17T12:19:59.692Z,88.59
2022-11-17T12:22:30.131Z,88.34
2022-11-17T12:25:00.378Z,88.21
2022-11-17T12:27:33.572Z,88.13
2022-11-17T12:30:02.532Z,88.11
2022-11-17T12:32:44.771Z,87.84
2022-11-17T12:35:24.577Z,87.91
2022-11-17T12:38:22.321Z,87.67
2022-11-17T12:40:51.497Z,87.57
2022-11-17T12:43:21.472Z,87.61
2022-11-17T12:46:19.436Z,87.29
2022-11-17T12:49:17.550Z,87.26
2022-11-17T12:51:59.820Z,87.00
2022-11-17T12:54:44.135Z,87.20
2022-11-17T12:57:19.836Z,86.88
2022-11-17T13:00:23.811Z,87.04
2022-11-17T13:03:07.751Z,87.10
2022-11-17T13:05:35.804Z,87.07
2022-11-17T13:08:20.070Z,86.92
2022-11-17T13:10:47.779Z,86.62
2022-11-17T13:13:20.410Z,86.60
2022-11-17T13:15:59.739Z,86.38
2022-11-17T13:18:38.063Z,86.51
2022-11-17T13:21:16.450Z,86.51
2022-11-17T13:23:45.567Z,86.81
2022-11-17T13:26:25.028Z,87.04
2022-11-17T13:29:14.742Z,86.83
2022-11-17T13:31:42.451Z,86.74
2022-11-17T13:34:12.739Z,86.61
2022-11-17T13:37:00.842Z,86.65
2022-11-17T13:39:28.694Z,86.51
2022-11-17T13:42:01.443Z,86.32
2022-11-17T13:44:28.952Z,86.29
2022-11-17T13:46:56.336Z,86.21
2022-11-17T13:49:33.491Z,86.34
2022-11-17T13:52:01.406Z,86.17
2022-11-17T13:54:28.581Z,86.44
2022-11-17T13:57:01.655Z,86.38
2022-11-17T13:59:35.330Z,86.51
2022-11-17T14:02:19.294Z,86.86
2022-11-17T14:05:05.178Z,86.65
2022-11-17T14:07:39.632Z,86.59
2022-11-17T14:10:31.410Z,86.98
2022-11-17T14:13:01.765Z,87.00
2022-11-17T14:15:32.292Z,87.16
2022-11-17T14:18:01.251Z,87.16
2022-11-17T14:20:36.094Z,87.37
2022-11-17T14:23:13.501Z,87.46
2022-11-17T14:25:42.619Z,87.71
2022-11-17T14:28:17.592Z,87.78
2022-11-17T14:30:48.249Z,87.92
2022-11-17T14:33:15.172Z,87.71
2022-11-17T14:35:43.090Z,87.72
2022-11-17T14:38:13.852Z,88.10
2022-11-17T14:40:40.850Z,88.36
2022-11-17T14:43:07.903Z,88.68
2022-11-17T14:45:35.901Z,89.18
2022-11-17T14:48:06.176Z,89.31
2022-11-17T14:50:33.338Z,89.47
2022-11-17T14:53:00.450Z,89.48
2022-11-17T14:55:27.979Z,89.87
2022-11-17T14:57:54.966Z,89.89
2022-11-17T15:00:22.179Z,90.07
2022-11-17T15:02:49.731Z,90.66
2022-11-17T15:05:17.092Z,90.68
2022-11-17T15:07:45.011Z,90.96
2022-11-17T15:10:12.667Z,90.93
2022-11-17T15:12:39.572Z,91.19
2022-11-17T15:15:07.050Z,91.39
2022-11-17T15:17:34.028Z,91.57
2022-11-17T15:20:01.060Z,91.50
2022-11-17T15:22:28.770Z,91.69
2022-11-17T15:24:56.690Z,91.64
2022-11-17T15:27:23.970Z,91.69
2022-11-17T15:29:51.090Z,91.86
2022-11-17T15:32:17.990Z,91.98
2022-11-17T15:34:45.011Z,92.35
2022-11-17T15:37:11.982Z,92.52
2022-11-17T15:39:39.731Z,92.63
2022-11-17T15:42:06.697Z,92.79
2022-11-17T15:44:33.741Z,92.80
2022-11-17T15:47:00.597Z,92.81
2022-11-17T15:49:27.570Z,93.01
2022-11-17T15:51:54.772Z,93.29
2022-11-17T15:54:23.811Z,93.23
2022-11-17T15:56:51.890Z,93.64
2022-11-17T15:59:19.318Z,93.76
2022-11-17T16:01:47.031Z,94.10
2022-11-17T16:04:18.364Z,94.12
2022-11-17T16:06:46.900Z,94.33
2022-11-17T16:09:15.324Z,94.36
2022-11-17T16:11:43.436Z,94.33
2022-11-17T16:14:10.556Z,94.20
2022-11-17T16:16:39.822Z,94.41
2022-11-17T16:19:07.082Z,94.51
2022-11-17T16:21:34.144Z,94.99
2022-11-17T16:24:02.427Z,94.92
2022-11-17T16:26:30.298Z,95.21
2022-11-17T16:29:02.452Z,95.38
2022-11-17T16:31:31.700Z,95.70
2022-11-17T16:33:59.964Z,95.90
2022-11-17T16:36:34.583Z,95.97
2022-11-17T16:39:04.814Z,96.09
2022-11-17T16:41:37.500Z,96.17
2022-11-17T16:44:16.476Z,96.38
2022-11-17T16:46:45.971Z,96.69
2022-11-17T16:49:16.513Z,96.57
2022-11-17T16:51:56.503Z,96.54
2022-11-17T16:54:24.036Z,96.70
2022-11-17T16:56:50.980Z,96.85
2022-11-17T16:59:18.605Z,97.02
2022-11-17T17:01:45.910Z,97.04
2022-11-17T17:04:14.750Z,97.36
2022-11-17T17:06:44.272Z,97.19
2022-11-17T17:09:13.972Z,97.56
2022-11-17T17:11:42.213Z,97.42
2022-11-17T17:14:13.150Z,97.45
2022-11-17T17:16:40.456Z,97.59
2022-11-17T17:19:09.263Z,97.35
2022-11-17T17:21:37.570Z,97.45
2022-11-17T17:24:05.332Z,97.70
2022-11-17T17:26:33.992Z,97.54
2022-11-17T17:29:02.540Z,97.73
2022-11-17T17:31:37.587Z,98.12
2022-11-17T17:34:06.414Z,98.08
2022-11-17T17:36:34.211Z,97.99
2022-11-17T17:39:02.892Z,98.33
2022-11-17T17:41:32.450Z,98.27
2022-11-17T17:44:03.211Z,98.34
2022-11-17T17:46:31.829Z,98.47
2022-11-17T17:48:59.456Z,98.27
2022-11-17T17:51:28.761Z,98.51
2022-11-17T17:53:58.420Z,98.51
2022-11-17T17:56:26.346Z,98.27
2022-11-17T17:58:57.013Z,98.57
2022-11-17T18:01:28.291Z,98.74
2022-11-17T18:04:01.652Z,98.93
2022-11-17T18:06:28.771Z,99.16
2022-11-17T18:08:57.091Z,99.02
2022-11-17T18:11:25.994Z,99.23
2022-11-17T18:13:53.657Z,99.30
2022-11-17T18:16:25.171Z,99.63
2022-11-17T18:19:03.896Z,99.60
2022-11-17T18:21:31.814Z,99.32
2022-11-17T18:24:01.390Z,99.17
2022-11-17T18:26:31.811Z,99.23
2022-11-17T18:29:07.571Z,99.31
2022-11-17T18:31:36.373Z,99.00
2022-11-17T18:34:06.692Z,99.18
2022-11-17T18:36:35.987Z,99.31
2022-11-17T18:39:03.822Z,99.36
2022-11-17T18:41:34.191Z,99.40
2022-11-17T18:44:01.497Z,99.62
2022-11-17T18:46:30.853Z,99.58
2022-11-17T18:48:58.492Z,99.83
2022-11-17T18:51:28.450Z,100.00
2022-11-17T18:53:59.230Z,100.00
2022-11-17T18:56:33.490Z,100.00
2022-11-17T18:59:04.229Z,100.00
2022-11-17T19:01:31.767Z,100.00
2022-11-17T19:04:02.611Z,100.00
2022-11-17T19:06:30.936Z,100.00
2022-11-17T19:08:59.428Z,100.00
2022-11-17T19:11:28.566Z,100.00
2022-11-17T19:13:55.572Z,100.00
2022-11-17T19:16:26.539Z,100.00
2022-11-17T19:18:56.721Z,100.00
2022-11-17T19:21:26.459Z,100.00
2022-11-17T19:23:56.049Z,100.00
2022-11-17T19:26:26.212Z,100.00
2022-11-17T19:29:05.011Z,100.00
2022-11-17T19:31:32.977Z,100.00
2022-11-17T19:33:59.903Z,100.00
2022-11-17T19:36:32.663Z,100.00
2022-11-17T19:39:03.777Z,100.00
2022-11-17T19:41:36.789Z,100.00
2022-11-17T19:44:07.449Z,100.00
2022-11-17T19:46:37.039Z,100.00
2022-11-17T19:49:06.545Z,100.00
2022-11-17T19:51:39.334Z,100.00
2022-11-17T19:54:09.013Z,100.00
2022-11-17T19:56:37.071Z,100.00
2022-11-17T19:59:05.024Z,100.00
2022-11-17T20:01:34.192Z,100.00
2022-11-17T20:04:02.050Z,100.00
2022-11-17T20:06:35.010Z,100.00
2022-11-17T20:09:10.428Z,100.00
2022-11-17T20:11:38.372Z,100.00
2022-11-17T20:14:05.732Z,100.00
2022-11-17T20:16:32.851Z,100.00
2022-11-17T20:19:02.617Z,100.00
2022-11-17T20:21:31.340Z,100.00
2022-11-17T20:23:59.397Z,100.00
2022-11-17T20:26:32.576Z,100.00
2022-11-17T20:29:00.714Z,100.00
2022-11-17T20:31:31.491Z,100.00
2022-11-17T20:34:00.889Z,100.00
2022-11-17T20:36:30.587Z,100.00
2022-11-17T20:39:00.454Z,100.00
2022-11-17T20:41:28.530Z,100.00
2022-11-17T20:43:57.377Z,100.00
2022-11-17T20:46:24.969Z,100.00
2022-11-17T20:48:52.240Z,100.00
2022-11-17T20:51:21.179Z,100.00
2022-11-17T20:53:48.132Z,100.00
2022-11-17T20:56:16.941Z,100.00
2022-11-17T20:58:44.844Z,100.00
2022-11-17T21:01:15.299Z,100.00
2022-11-17T21:03:43.259Z,100.00
2022-11-17T21:06:10.773Z,100.00
2022-11-17T21:08:40.301Z,100.00
2022-11-17T21:11:10.620Z,100.00
2022-11-17T21:13:38.051Z,100.00
2022-11-17T21:16:06.094Z,100.00
2022-11-17T21:18:33.230Z,100.00
2022-11-17T21:21:00.992Z,100.00
2022-11-17T21:23:28.702Z,100.00
2022-11-17T21:25:55.618Z,100.00
2022-11-17T21:28:23.206Z,100.00
2022-11-17T21:30:50.181Z,100.00
2022-11-17T21:33:17.270Z,100.00
2022-11-17T21:35:44.211Z,100.00
2022-11-17T21:38:11.601Z,100.00
2022-11-17T21:40:38.541Z,100.00
2022-11-17T21:43:05.732Z,100.00
2022-11-17T21:45:33.731Z,100.00
2022-11-17T21:48:00.771Z,100.00
2022-11-17T21:50:27.738Z,100.00
2022-11-17T21:52:54.852Z,100.00
2022-11-17T21:55:21.665Z,100.00
2022-11-17T21:57:52.266Z,100.00
2022-11-17T22:00:19.596Z,100.00
2022-11-17T22:02:46.536Z,100.00
2022-11-17T22:05:13.676Z,100.00
2022-11-17T22:07:40.656Z,100.00
2022-11-17T22:10:08.186Z,100.00
2022-11-17T22:12:35.326Z,100.00
2022-11-17T22:15:05.042Z,100.00
2022-11-17T22:17:34.635Z,100.00
2022-11-17T22:20:01.678Z,100.00
2022-11-17T22:22:28.691Z,100.00
2022-11-17T22:24:55.875Z,100.00
2022-11-17T22:27:26.486Z,100.00
2022-11-17T22:29:53.570Z,100.00
2022-11-17T22:32:20.932Z,100.00
2022-11-17T22:34:48.315Z,100.00
2022-11-17T22:37:15.317Z,100.00
2022-11-17T22:39:42.408Z,100.00
2022-11-17T22:42:09.307Z,100.00
2022-11-17T22:44:36.332Z,100.00
2022-11-17T22:47:03.288Z,100.00
2022-11-17T22:49:30.318Z,100.00
2022-11-17T22:52:08.754Z,100.00
2022-11-17T22:54:35.994Z,100.00
2022-11-17T22:57:02.949Z,100.00
2022-11-17T22:59:30.823Z,100.00
2022-11-17T23:01:57.736Z,100.00
2022-11-17T23:04:24.789Z,100.00
2022-11-17T23:06:52.206Z,100.00
2022-11-17T23:09:19.350Z,100.00
2022-11-17T23:11:46.517Z,100.00
2022-11-17T23:14:15.049Z,100.00
2022-11-17T23:16:42.518Z,100.00
2022-11-17T23:19:13.434Z,100.00
2022-11-17T23:21:42.097Z,100.00
2022-11-17T23:24:14.707Z,100.00
2022-11-17T23:26:42.276Z,100.00
2022-11-17T23:29:09.695Z,100.00
2022-11-17T23:31:37.033Z,100.00
2022-11-17T23:34:04.008Z,100.00
2022-11-17T23:36:31.148Z,100.00
2022-11-17T23:38:58.288Z,100.00
2022-11-17T23:41:25.655Z,100.00
2022-11-17T23:43:54.460Z,100.00
2022-11-17T23:46:24.824Z,100.00
2022-11-17T23:48:53.316Z,100.00
2022-11-17T23:51:22.873Z,100.00
2022-11-17T23:53:49.973Z,100.00
2022-11-17T23:56:19.350Z,100.00
2022-11-17T23:58:46.485Z,100.00
